GCHI

Hierro Airport

El Hierro Island, Spain
METAR GCHI 201600Z 35011KT 9999 FEW035 25/17 Q1016
Observed Flight Rules
Aug-20 @ 16:00 UTC (22 minutes ago) Visual Flight Rules
Wind Visibility Clouds
350° at 11 knots 10,000+ meters
  • Few at 3,500' AGL
Temperatures Readings
Current 25°C / 77°F
Dewpoint 17°C / 63°F
Humidity 61%
Altimeter 30" Hg
Pressure 1016 hPa
Elevation 30
METAR GCHI 201600Z 35011KT 9999 FEW035 25/17 Q1016
Observed Flight Rules
Aug-20 @ 16:00 UTC
(22 minutes ago)
VFR
Wind Visibility
350° at 11 knots 10,000+ meters
Clouds
  • Few at 3,500' AGL
Temperature Dewpoint
25°C / 77°F 17°C / 63°F
Humidity Altimeter Pressure
61% 30" Hg 1016 hPa